Time;durP1;ratioP1;P1;durP2;ratioP2;P2;SDS_P1;SDS_P2;PMS_P1;PMS_P2;Temp;Humidity;BMP_temperature;BMP_pressure;BME280_temperature;BME280_humidity;BME280_pressure;Samples;Min_cycle;Max_cycle;Signal;HPM_P1;HPM_P2
2021/12/11 00:02:24;;;;;;;21.07;13.27;;;;;;;2.51;100.00;97770.28;5067977;28;20189;-87
2021/12/11 00:04:57;;;;;;;24.57;14.03;;;;;;;2.38;100.00;97778.84;5083413;28;20195;-87
2021/12/11 00:07:30;;;;;;;22.53;14.00;;;;;;;2.38;100.00;97786.66;5112362;28;20222;-87
2021/12/11 00:10:11;;;;;;;21.17;13.53;;;;;;;2.48;100.00;97793.94;5114762;28;20275;-87
2021/12/11 00:12:47;;;;;;;21.17;13.90;;;;;;;2.52;100.00;97797.25;5117436;27;20641;-87
2021/12/11 00:15:19;;;;;;;22.93;13.97;;;;;;;2.51;100.00;97795.53;5111134;28;20201;-87
2021/12/11 00:17:48;;;;;;;19.57;12.93;;;;;;;2.53;100.00;97804.16;5117475;27;20235;-88
2021/12/11 00:20:21;;;;;;;19.20;13.57;;;;;;;2.59;100.00;97806.41;5113507;27;20658;-88
2021/12/11 00:22:50;;;;;;;21.07;13.97;;;;;;;2.54;100.00;97811.06;5114687;28;20634;-88
2021/12/11 00:25:20;;;;;;;22.50;14.40;;;;;;;2.55;100.00;97815.34;5112162;28;20642;-87
2021/12/11 00:27:51;;;;;;;18.80;12.53;;;;;;;2.57;100.00;97822.19;5114757;28;20214;-87
2021/12/11 00:30:25;;;;;;;24.00;14.60;;;;;;;2.45;100.00;97817.63;5115025;28;20195;-88
2021/12/11 00:33:00;;;;;;;22.67;13.63;;;;;;;2.59;100.00;97825.56;5112666;28;20203;-88
2021/12/11 00:35:30;;;;;;;20.63;14.07;;;;;;;2.61;100.00;97827.28;5133907;28;20214;-85
2021/12/11 00:38:05;;;;;;;18.80;13.10;;;;;;;2.63;100.00;97828.88;5113478;28;20252;-88
2021/12/11 00:40:39;;;;;;;19.67;12.87;;;;;;;2.64;100.00;97829.72;5107283;28;20641;-87
2021/12/11 00:43:15;;;;;;;17.13;12.30;;;;;;;2.65;100.00;97837.47;5071983;28;20188;-87
2021/12/11 00:45:45;;;;;;;18.87;12.43;;;;;;;2.67;100.00;97846.06;5064148;28;20196;-87
2021/12/11 00:48:17;;;;;;;19.67;13.07;;;;;;;2.67;100.00;97847.84;5068039;28;20192;-87
2021/12/11 00:50:51;;;;;;;20.07;12.63;;;;;;;2.59;100.00;97849.06;5067642;28;20184;-87
2021/12/11 00:53:24;;;;;;;22.40;14.13;;;;;;;2.53;100.00;97859.03;5065624;28;20231;-88
2021/12/11 00:55:56;;;;;;;19.57;12.90;;;;;;;2.63;100.00;97862.00;5078811;28;20234;-87
2021/12/11 00:58:28;;;;;;;20.00;14.13;;;;;;;2.59;100.00;97869.13;5084636;28;20192;-87
2021/12/11 01:00:59;;;;;;;23.67;13.87;;;;;;;2.64;100.00;97872.38;5094997;28;20182;-87
2021/12/11 01:03:31;;;;;;;20.27;13.43;;;;;;;2.62;100.00;97876.84;5114181;27;20191;-87
2021/12/11 01:06:03;;;;;;;25.43;14.50;;;;;;;2.68;100.00;97881.72;5110511;28;20202;-87
2021/12/11 01:08:34;;;;;;;24.53;14.57;;;;;;;2.66;100.00;97886.19;5111533;28;20301;-86
2021/12/11 01:11:12;;;;;;;23.00;13.40;;;;;;;2.56;100.00;97896.28;5109202;28;20187;-86
2021/12/11 01:13:54;;;;;;;19.33;12.57;;;;;;;2.62;100.00;97900.34;5048762;28;20199;-87
2021/12/11 01:16:23;;;;;;;20.70;12.97;;;;;;;2.52;100.00;97896.53;5052586;28;20209;-87
2021/12/11 01:19:04;;;;;;;20.33;12.87;;;;;;;2.64;100.00;97910.72;5039760;28;20209;-86
2021/12/11 01:21:45;;;;;;;17.40;12.13;;;;;;;2.52;100.00;97915.69;5048494;28;20236;-86
2021/12/11 01:24:29;;;;;;;17.73;11.57;;;;;;;2.62;100.00;97928.25;5050125;28;20231;-86
2021/12/11 01:27:01;;;;;;;22.77;13.30;;;;;;;2.56;100.00;97932.88;5048429;28;20221;-86
2021/12/11 01:29:32;;;;;;;18.70;11.87;;;;;;;2.59;100.00;97934.47;5047971;28;20216;-86
2021/12/11 01:32:01;;;;;;;19.33;11.53;;;;;;;2.61;100.00;97939.66;5085967;28;20191;-86
2021/12/11 01:34:30;;;;;;;20.80;12.67;;;;;;;2.54;100.00;97947.78;5111308;28;20187;-86
2021/12/11 01:37:00;;;;;;;21.17;12.17;;;;;;;2.52;100.00;97952.25;5110048;28;20198;-86
2021/12/11 01:39:32;;;;;;;17.13;12.53;;;;;;;2.49;100.00;97962.00;5108041;28;20669;-86
2021/12/11 01:42:10;;;;;;;20.17;11.77;;;;;;;2.51;100.00;97965.38;5113883;28;20187;-86
2021/12/11 01:44:42;;;;;;;17.47;12.10;;;;;;;2.55;100.00;97965.16;5070247;28;20189;-86
2021/12/11 01:47:13;;;;;;;17.77;11.57;;;;;;;2.56;100.00;97974.69;5064561;28;20220;-85
2021/12/11 01:49:46;;;;;;;18.70;12.17;;;;;;;2.57;100.00;97986.81;5065188;28;20226;-86
2021/12/11 01:52:25;;;;;;;19.03;11.57;;;;;;;2.56;100.00;97985.13;5065732;28;20204;-86
2021/12/11 01:54:56;;;;;;;16.13;11.43;;;;;;;2.56;100.00;97987.75;5070123;28;20201;-86
2021/12/11 01:57:30;;;;;;;16.50;10.80;;;;;;;2.72;100.00;97993.06;5064771;28;20370;-86
2021/12/11 02:00:02;;;;;;;16.67;10.77;;;;;;;2.64;100.00;97994.38;5031079;28;20189;-85
2021/12/11 02:02:33;;;;;;;17.27;11.40;;;;;;;2.64;100.00;98003.06;5031065;28;20217;-86
2021/12/11 02:05:03;;;;;;;17.70;10.73;;;;;;;2.63;100.00;98000.53;5029432;28;20208;-86
2021/12/11 02:07:36;;;;;;;16.33;10.30;;;;;;;2.67;100.00;98005.50;5025135;28;20221;-86
2021/12/11 02:10:14;;;;;;;15.20;10.63;;;;;;;2.64;100.00;98015.28;5032153;28;20209;-86
2021/12/11 02:12:44;;;;;;;15.57;10.60;;;;;;;2.66;100.00;98019.50;5033883;28;20212;-86
2021/12/11 02:15:16;;;;;;;19.90;10.83;;;;;;;2.67;100.00;98023.78;5044866;28;20260;-86
2021/12/11 02:17:51;;;;;;;16.90;10.50;;;;;;;2.67;100.00;98029.03;5097240;28;20240;-86
2021/12/11 02:20:27;;;;;;;16.30;10.70;;;;;;;2.60;100.00;98038.09;5115746;27;20251;-85
2021/12/11 02:22:57;;;;;;;17.57;10.70;;;;;;;2.48;100.00;98029.09;5115987;28;20194;-86
2021/12/11 02:25:29;;;;;;;18.07;10.63;;;;;;;2.45;100.00;98041.47;5119620;27;20194;-85
2021/12/11 02:28:03;;;;;;;18.13;10.20;;;;;;;2.53;100.00;98049.78;5131320;28;20206;-84
2021/12/11 02:30:37;;;;;;;15.20;10.53;;;;;;;2.58;100.00;98050.41;5141434;27;20183;-85
2021/12/11 02:33:15;;;;;;;17.43;10.23;;;;;;;2.48;100.00;98054.38;5129464;28;20204;-86
2021/12/11 02:35:48;;;;;;;19.23;10.07;;;;;;;2.47;100.00;98065.75;5109133;28;20244;-86
2021/12/11 02:38:27;;;;;;;18.17;10.63;;;;;;;2.43;100.00;98080.75;5110158;28;20199;-86
2021/12/11 02:41:01;;;;;;;13.93;9.67;;;;;;;2.49;100.00;98069.97;5114617;28;20191;-86
2021/12/11 02:43:38;;;;;;;16.97;10.70;;;;;;;2.38;100.00;98071.44;5116858;28;20203;-86
2021/12/11 02:46:10;;;;;;;17.23;10.53;;;;;;;2.43;100.00;98083.38;5116838;28;20194;-86
2021/12/11 02:48:44;;;;;;;16.53;10.97;;;;;;;2.34;100.00;98091.66;5110648;28;20218;-86
2021/12/11 02:51:16;;;;;;;16.00;10.23;;;;;;;2.32;100.00;98092.63;5116330;27;20264;-86
2021/12/11 02:53:55;;;;;;;14.43;9.80;;;;;;;2.38;100.00;98097.56;5112597;28;20199;-86
2021/12/11 02:56:30;;;;;;;17.93;10.00;;;;;;;2.45;100.00;98114.66;5115203;28;20202;-86
2021/12/11 02:59:04;;;;;;;18.37;11.60;;;;;;;2.47;100.00;98111.03;5119071;27;20207;-86
2021/12/11 03:01:36;;;;;;;15.90;10.30;;;;;;;2.48;100.00;98114.50;5116578;28;20186;-86
2021/12/11 03:04:15;;;;;;;20.20;10.80;;;;;;;2.55;100.00;98116.75;5114192;28;20194;-85
2021/12/11 03:06:48;;;;;;;16.50;10.20;;;;;;;2.48;100.00;98128.41;5114736;28;20191;-86
2021/12/11 03:09:22;;;;;;;18.80;10.23;;;;;;;2.52;100.00;98132.56;5115729;28;20231;-86
2021/12/11 03:11:53;;;;;;;14.20;10.27;;;;;;;2.50;100.00;98125.69;5115879;28;20194;-86
2021/12/11 03:14:23;;;;;;;16.03;10.40;;;;;;;2.58;100.00;98139.25;5115890;28;20194;-86
2021/12/11 03:16:53;;;;;;;16.67;10.67;;;;;;;2.55;100.00;98142.03;5116051;28;20189;-86
2021/12/11 03:19:26;;;;;;;16.57;11.13;;;;;;;2.51;100.00;98145.69;5115888;28;20252;-86
2021/12/11 03:21:55;;;;;;;18.90;10.63;;;;;;;2.52;100.00;98152.63;5113331;27;20199;-86
2021/12/11 03:24:26;;;;;;;16.80;11.07;;;;;;;2.48;100.00;98156.28;5093292;28;20196;-86
2021/12/11 03:26:57;;;;;;;19.13;11.63;;;;;;;2.53;100.00;98167.41;5093616;28;20287;-86
2021/12/11 03:29:26;;;;;;;21.33;12.67;;;;;;;2.52;100.00;98171.78;5050957;28;20221;-86
2021/12/11 03:31:54;;;;;;;21.73;12.00;;;;;;;2.55;100.00;98176.84;5053449;28;20193;-86
2021/12/11 03:34:31;;;;;;;21.03;12.20;;;;;;;2.53;100.00;98177.84;5048558;28;20208;-86
2021/12/11 03:37:03;;;;;;;19.47;12.97;;;;;;;2.50;100.00;98188.41;5049475;28;20197;-85
2021/12/11 03:39:37;;;;;;;17.47;12.17;;;;;;;2.54;100.00;98190.00;5048886;28;20686;-86
2021/12/11 03:42:15;;;;;;;21.50;12.43;;;;;;;2.46;100.00;98200.78;5062423;28;20188;-85
2021/12/11 03:44:44;;;;;;;20.27;12.97;;;;;;;2.50;100.00;98196.25;5093404;28;20207;-86
2021/12/11 03:47:25;;;;;;;22.93;12.93;;;;;;;2.43;100.00;98202.72;5106193;28;20205;-85
2021/12/11 03:49:54;;;;;;;20.20;13.43;;;;;;;2.48;100.00;98209.41;5134640;28;20199;-84
2021/12/11 03:52:24;;;;;;;20.17;12.90;;;;;;;2.52;100.00;98212.75;5139728;28;20206;-84
2021/12/11 03:54:55;;;;;;;18.13;12.53;;;;;;;2.54;100.00;98218.75;5140194;28;20195;-84
2021/12/11 03:57:31;;;;;;;21.77;13.27;;;;;;;2.52;100.00;98225.81;5120738;28;20199;-86
2021/12/11 04:00:00;;;;;;;19.30;13.17;;;;;;;2.42;100.00;98225.38;5112201;28;20197;-86
2021/12/11 04:02:34;;;;;;;20.60;12.63;;;;;;;2.41;100.00;98225.44;5105365;28;20204;-86
2021/12/11 04:05:08;;;;;;;18.90;13.20;;;;;;;2.54;100.00;98239.66;5108636;28;20200;-86
2021/12/11 04:07:41;;;;;;;22.13;14.07;;;;;;;2.57;100.00;98245.56;5112497;28;20195;-85
2021/12/11 04:10:17;;;;;;;18.13;13.00;;;;;;;2.45;100.00;98248.75;5113224;28;20226;-86
2021/12/11 04:12:48;;;;;;;22.17;13.00;;;;;;;2.45;100.00;98256.59;5112831;28;20194;-86
2021/12/11 04:15:18;;;;;;;20.00;13.17;;;;;;;2.42;100.00;98254.13;5108903;28;20259;-86
2021/12/11 04:17:46;;;;;;;20.77;13.43;;;;;;;2.47;100.00;98259.13;5111286;28;20199;-86
2021/12/11 04:20:19;;;;;;;19.20;13.40;;;;;;;2.35;100.00;98270.16;5114144;28;20274;-86
2021/12/11 04:22:49;;;;;;;21.13;13.37;;;;;;;2.34;100.00;98269.31;5114405;27;20191;-85
2021/12/11 04:25:22;;;;;;;19.03;12.47;;;;;;;2.28;100.00;98280.84;5114596;28;20196;-85
2021/12/11 04:27:51;;;;;;;19.50;13.60;;;;;;;2.22;100.00;98275.94;5109316;28;20203;-86
2021/12/11 04:30:23;;;;;;;18.97;13.23;;;;;;;2.25;100.00;98285.38;5112854;28;20222;-86
2021/12/11 04:32:54;;;;;;;17.80;12.50;;;;;;;2.28;100.00;98287.84;5114686;28;20195;-86
2021/12/11 04:35:27;;;;;;;21.70;13.03;;;;;;;2.36;100.00;98287.50;5106818;28;20191;-86
2021/12/11 04:37:56;;;;;;;22.83;13.57;;;;;;;2.42;100.00;98300.31;5108427;28;20244;-86
2021/12/11 04:40:34;;;;;;;18.73;13.67;;;;;;;2.35;100.00;98302.34;5068443;28;20198;-86
2021/12/11 04:43:06;;;;;;;20.33;13.17;;;;;;;2.41;100.00;98316.88;5067048;28;20196;-86
2021/12/11 04:45:38;;;;;;;20.77;12.97;;;;;;;2.41;100.00;98312.50;5071424;28;20269;-86
2021/12/11 04:48:14;;;;;;;18.70;12.00;;;;;;;2.31;100.00;98321.66;5068893;28;20200;-86
2021/12/11 04:50:51;;;;;;;21.23;12.17;;;;;;;2.23;100.00;98321.19;5068967;28;20188;-86
2021/12/11 04:56:30;;;;;;;18.67;12.73;;;;;;;2.17;100.00;98334.50;5068757;28;20206;-86
2021/12/11 04:59:20;;;;;;;17.47;11.77;;;;;;;2.21;100.00;98330.81;5095968;28;20268;-85
2021/12/11 05:02:00;;;;;;;16.10;12.10;;;;;;;2.23;100.00;98340.31;5112985;28;20187;-86
2021/12/11 05:04:44;;;;;;;17.60;12.63;;;;;;;2.25;100.00;98338.47;5114061;28;20677;-85
2021/12/11 05:07:29;;;;;;;22.40;12.80;;;;;;;2.17;100.00;98345.78;5114767;28;20187;-84
2021/12/11 05:10:05;;;;;;;20.07;12.33;;;;;;;2.20;100.00;98353.50;5082894;28;20218;-84
2021/12/11 05:12:35;;;;;;;22.23;12.70;;;;;;;2.22;100.00;98356.03;5069433;28;20188;-85
2021/12/11 05:15:08;;;;;;;18.63;11.27;;;;;;;2.14;100.00;98366.84;5068670;28;20196;-84
2021/12/11 05:17:36;;;;;;;16.80;10.90;;;;;;;2.05;100.00;98380.28;5008053;28;20700;-85
2021/12/11 05:20:07;;;;;;;16.97;10.83;;;;;;;2.00;100.00;98383.06;5002702;28;20198;-85
2021/12/11 05:22:35;;;;;;;17.60;11.90;;;;;;;1.97;100.00;98387.59;5005047;28;20186;-85
2021/12/11 05:25:06;;;;;;;21.20;11.33;;;;;;;1.92;100.00;98386.91;5008139;28;20197;-84
2021/12/11 05:27:37;;;;;;;17.93;11.07;;;;;;;1.99;100.00;98399.66;5006383;28;20198;-84
2021/12/11 05:30:09;;;;;;;16.60;10.90;;;;;;;1.92;100.00;98405.19;5024603;28;20212;-84
2021/12/11 05:32:38;;;;;;;15.57;10.90;;;;;;;1.91;100.00;98399.13;5067351;28;20725;-85
2021/12/11 05:35:08;;;;;;;16.90;10.47;;;;;;;1.88;100.00;98407.09;5064777;28;20694;-84
2021/12/11 05:37:37;;;;;;;16.47;10.43;;;;;;;1.67;100.00;98408.81;5068371;28;20188;-84
2021/12/11 05:40:08;;;;;;;17.90;11.30;;;;;;;1.71;100.00;98417.34;5071268;28;20200;-84
2021/12/11 05:42:39;;;;;;;16.40;10.80;;;;;;;1.72;100.00;98416.44;5068835;28;20211;-85
2021/12/11 05:45:08;;;;;;;15.27;10.07;;;;;;;1.86;100.00;98421.97;5068395;28;20241;-84
2021/12/11 05:47:37;;;;;;;14.77;10.20;;;;;;;1.84;100.00;98425.56;5025124;28;20201;-84
2021/12/11 05:50:07;;;;;;;18.27;11.23;;;;;;;1.66;100.00;98427.16;5116383;28;20237;-85
2021/12/11 05:52:36;;;;;;;19.00;10.60;;;;;;;1.64;100.00;98434.16;5118173;28;20198;-85
2021/12/11 05:55:09;;;;;;;18.33;10.57;;;;;;;1.60;100.00;98437.81;5114351;28;20195;-86
2021/12/11 05:57:41;;;;;;;15.10;10.33;;;;;;;1.63;100.00;98442.91;5052573;28;20205;-85
2021/12/11 06:00:11;;;;;;;15.97;10.27;;;;;;;1.56;100.00;98455.38;5050032;28;20219;-84
2021/12/11 06:02:58;;;;;;;13.27;9.33;;;;;;;1.54;100.00;98454.56;5055212;28;20239;-84
2021/12/11 06:05:26;;;;;;;16.93;10.13;;;;;;;1.50;100.00;98454.75;5054104;28;20251;-85
2021/12/11 06:07:55;;;;;;;19.70;11.17;;;;;;;1.53;100.00;98465.06;5053303;28;20710;-85
2021/12/11 06:10:27;;;;;;;15.53;10.27;;;;;;;1.45;100.00;98470.59;5037542;28;20224;-84
2021/12/11 06:13:00;;;;;;;13.77;10.43;;;;;;;1.44;100.00;98477.53;5057123;28;20212;-85
2021/12/11 06:15:31;;;;;;;16.40;9.87;;;;;;;1.50;100.00;98486.06;5057154;28;20228;-85
2021/12/11 06:18:02;;;;;;;16.67;9.93;;;;;;;1.41;100.00;98493.31;5058405;28;20185;-84
2021/12/11 06:20:32;;;;;;;19.87;10.93;;;;;;;1.47;100.00;98499.22;5050489;28;20208;-85
2021/12/11 06:23:07;;;;;;;18.10;10.53;;;;;;;1.47;100.00;98500.06;5103635;28;20197;-84
2021/12/11 06:25:35;;;;;;;17.10;10.13;;;;;;;1.47;100.00;98518.34;5117950;28;20187;-85
2021/12/11 06:28:06;;;;;;;15.67;10.23;;;;;;;1.51;100.00;98527.75;5117456;27;20260;-84
2021/12/11 06:30:36;;;;;;;17.57;9.80;;;;;;;1.53;100.00;98519.84;5117513;28;20218;-85
2021/12/11 06:33:05;;;;;;;14.83;10.13;;;;;;;1.53;100.00;98532.91;5118019;28;20209;-84
2021/12/11 06:35:37;;;;;;;18.87;10.17;;;;;;;1.59;100.00;98538.75;5116051;28;20201;-84
2021/12/11 06:38:09;;;;;;;17.77;10.10;;;;;;;1.65;100.00;98537.69;5113615;28;20195;-83
2021/12/11 06:40:39;;;;;;;17.20;10.50;;;;;;;1.61;100.00;98536.91;5113512;28;20199;-85
2021/12/11 06:43:09;;;;;;;14.77;9.83;;;;;;;1.62;100.00;98550.81;5116422;28;20191;-85
2021/12/11 06:45:38;;;;;;;15.80;10.87;;;;;;;1.52;100.00;98558.13;5116554;27;20195;-84
2021/12/11 06:48:07;;;;;;;21.13;10.00;;;;;;;1.55;100.00;98558.03;5116669;28;20198;-85
2021/12/11 06:50:35;;;;;;;15.43;10.40;;;;;;;1.48;100.00;98559.19;5115406;27;20276;-85
2021/12/11 06:53:09;;;;;;;15.33;10.53;;;;;;;1.50;100.00;98553.91;5118758;27;20199;-85
2021/12/11 06:55:38;;;;;;;15.93;10.30;;;;;;;1.48;100.00;98571.38;5116302;28;20300;-85
2021/12/11 06:58:08;;;;;;;16.60;10.13;;;;;;;1.40;100.00;98571.66;5118342;27;20203;-85
2021/12/11 07:00:37;;;;;;;16.70;10.60;;;;;;;1.43;100.00;98569.75;5116322;28;20202;-85
2021/12/11 07:03:06;;;;;;;15.70;10.47;;;;;;;1.46;100.00;98576.66;5116205;28;20193;-85
2021/12/11 07:05:37;;;;;;;22.10;14.30;;;;;;;1.53;100.00;98587.69;5110062;28;20186;-85
2021/12/11 07:08:07;;;;;;;20.97;14.03;;;;;;;1.63;100.00;98592.50;5076915;28;20668;-85
2021/12/11 07:10:36;;;;;;;21.67;14.57;;;;;;;1.48;100.00;98605.28;5115714;28;20222;-85
2021/12/11 07:13:04;;;;;;;17.13;12.80;;;;;;;1.46;100.00;98614.94;5116554;28;20187;-85
2021/12/11 07:15:34;;;;;;;18.27;12.40;;;;;;;1.48;100.00;98626.16;5049537;28;20249;-85
2021/12/11 07:18:05;;;;;;;19.03;12.33;;;;;;;1.45;100.00;98640.19;5046203;28;20201;-85
2021/12/11 07:20:34;;;;;;;21.93;12.77;;;;;;;1.56;100.00;98645.00;5043982;28;20197;-85
2021/12/11 07:23:04;;;;;;;20.40;14.07;;;;;;;1.63;100.00;98649.06;5050855;28;20193;-85
2021/12/11 07:25:39;;;;;;;26.87;18.03;;;;;;;1.69;100.00;98659.31;5044874;28;20194;-84
2021/12/11 07:28:09;;;;;;;26.47;16.60;;;;;;;1.65;100.00;98665.56;5047235;28;20185;-85
2021/12/11 07:30:41;;;;;;;26.63;16.10;;;;;;;1.67;100.00;98668.97;5053113;28;20247;-85
2021/12/11 07:33:11;;;;;;;26.13;16.67;;;;;;;1.64;100.00;98676.88;5066756;28;20251;-85
2021/12/11 07:35:41;;;;;;;25.63;16.97;;;;;;;1.63;100.00;98683.00;5114710;28;20191;-84
2021/12/11 07:38:10;;;;;;;33.10;18.23;;;;;;;1.48;100.00;98680.97;5068179;28;20266;-85
2021/12/11 07:40:41;;;;;;;33.20;18.23;;;;;;;1.48;100.00;98689.63;5067740;28;20311;-85
2021/12/11 07:43:11;;;;;;;28.60;18.00;;;;;;;1.50;100.00;98697.41;5066136;28;20267;-85
2021/12/11 07:45:42;;;;;;;31.17;18.27;;;;;;;1.55;100.00;98709.41;5070271;28;20336;-85
2021/12/11 07:48:11;;;;;;;30.20;18.10;;;;;;;1.54;100.00;98710.28;5068233;28;20195;-85
2021/12/11 07:50:40;;;;;;;30.87;18.63;;;;;;;1.56;100.00;98718.09;5067237;28;20220;-85
2021/12/11 07:53:09;;;;;;;31.20;19.73;;;;;;;1.38;100.00;98719.56;5065456;28;20243;-85
2021/12/11 07:55:38;;;;;;;33.67;20.20;;;;;;;1.40;100.00;98720.34;5068459;28;20656;-85
2021/12/11 07:58:07;;;;;;;32.73;20.30;;;;;;;1.39;100.00;98723.88;5115254;28;20232;-85
2021/12/11 08:00:38;;;;;;;33.83;19.07;;;;;;;1.46;100.00;98733.19;5106076;28;20248;-85
2021/12/11 08:03:10;;;;;;;32.07;19.80;;;;;;;1.43;100.00;98736.75;5115365;28;20187;-85
2021/12/11 08:05:40;;;;;;;36.47;20.50;;;;;;;1.49;100.00;98737.47;5113685;28;20213;-85
2021/12/11 08:08:10;;;;;;;34.63;20.97;;;;;;;1.47;100.00;98741.88;5114944;28;20272;-84
2021/12/11 08:10:41;;;;;;;35.73;20.97;;;;;;;1.55;100.00;98755.53;5114531;28;20218;-84
2021/12/11 08:13:10;;;;;;;32.63;20.03;;;;;;;1.52;100.00;98760.81;5111869;28;20223;-85
2021/12/11 08:15:40;;;;;;;34.47;19.97;;;;;;;1.53;100.00;98755.56;5115040;28;20296;-85
2021/12/11 08:18:13;;;;;;;32.77;20.63;;;;;;;1.52;100.00;98756.47;5113482;28;20217;-85
2021/12/11 08:20:45;;;;;;;35.30;20.27;;;;;;;1.58;100.00;98778.91;5113887;28;20229;-85
2021/12/11 08:23:16;;;;;;;35.93;20.70;;;;;;;1.60;100.00;98771.84;5113852;28;20195;-84
2021/12/11 08:25:48;;;;;;;33.33;20.17;;;;;;;1.63;100.00;98784.78;5108918;28;20195;-84
2021/12/11 08:28:22;;;;;;;34.23;20.70;;;;;;;1.70;100.00;98783.69;5111741;28;20256;-84
2021/12/11 08:30:54;;;;;;;42.83;21.30;;;;;;;1.77;100.00;98795.63;5049284;28;20219;-84
2021/12/11 08:33:28;;;;;;;38.13;21.13;;;;;;;1.79;100.00;98809.47;5052234;28;20201;-85
2021/12/11 08:35:57;;;;;;;35.87;20.90;;;;;;;1.84;100.00;98804.97;5042309;28;20201;-84
2021/12/11 08:38:25;;;;;;;37.90;21.97;;;;;;;1.89;100.00;98812.63;5045458;28;20200;-84
2021/12/11 08:40:57;;;;;;;35.67;22.17;;;;;;;1.85;100.00;98811.91;5045226;28;20193;-85
2021/12/11 08:43:26;;;;;;;35.13;21.90;;;;;;;1.90;100.00;98815.19;5049097;28;20193;-84
2021/12/11 08:46:07;;;;;;;36.53;21.60;;;;;;;1.95;100.00;98818.50;5044973;28;20185;-84
2021/12/11 08:48:39;;;;;;;40.57;21.43;;;;;;;1.95;100.00;98820.25;5070751;28;20289;-84
2021/12/11 08:51:11;;;;;;;38.43;21.33;;;;;;;2.02;100.00;98824.34;5103840;28;20259;-84
2021/12/11 08:53:40;;;;;;;38.00;22.40;;;;;;;1.97;100.00;98829.75;5107574;28;20245;-84
2021/12/11 08:56:11;;;;;;;41.57;22.13;;;;;;;2.08;100.00;98837.19;5116818;27;20191;-84
2021/12/11 08:58:41;;;;;;;34.47;21.47;;;;;;;1.95;100.00;98849.00;5114314;28;20183;-84
2021/12/11 09:01:14;;;;;;;36.10;22.70;;;;;;;1.91;100.00;98840.38;5108335;28;20244;-84
2021/12/11 09:03:51;;;;;;;33.20;20.67;;;;;;;2.13;100.00;98853.59;5095359;28;20217;-85
2021/12/11 09:06:23;;;;;;;32.63;19.63;;;;;;;2.18;100.00;98851.66;5108015;28;20359;-85
2021/12/11 09:08:55;;;;;;;38.43;20.43;;;;;;;2.18;100.00;98846.41;5108914;28;20307;-85
2021/12/11 09:11:26;;;;;;;36.53;20.37;;;;;;;2.18;100.00;98862.09;5108881;28;20746;-85
2021/12/11 09:14:00;;;;;;;36.20;19.73;;;;;;;2.34;100.00;98856.34;5113865;28;20187;-85
2021/12/11 09:16:35;;;;;;;36.30;19.10;;;;;;;2.20;100.00;98868.13;5113721;28;20193;-85
2021/12/11 09:19:12;;;;;;;33.87;20.37;;;;;;;2.36;100.00;98868.44;5109862;28;20191;-84
2021/12/11 09:21:49;;;;;;;31.77;18.87;;;;;;;2.31;100.00;98878.19;5112888;28;20191;-85
2021/12/11 09:24:25;;;;;;;31.80;17.40;;;;;;;2.49;100.00;98881.91;5111078;28;20191;-85
2021/12/11 09:26:58;;;;;;;35.80;18.93;;;;;;;2.50;100.00;98888.84;5110820;28;20255;-85
2021/12/11 09:29:33;;;;;;;31.33;17.93;;;;;;;2.67;100.00;98886.47;5114560;28;20231;-85
2021/12/11 09:32:14;;;;;;;31.00;17.23;;;;;;;2.63;100.00;98891.88;5115313;28;20249;-85
2021/12/11 09:34:49;;;;;;;33.37;17.10;;;;;;;2.55;100.00;98897.38;5108755;28;20205;-85
2021/12/11 09:37:18;;;;;;;32.67;17.57;;;;;;;2.45;100.00;98896.00;5108187;28;20671;-85
2021/12/11 09:39:51;;;;;;;31.73;18.27;;;;;;;2.43;100.00;98900.44;5113297;28;20201;-85
2021/12/11 09:42:20;;;;;;;30.23;17.43;;;;;;;2.53;100.00;98897.44;5110265;28;20195;-85
2021/12/11 09:44:54;;;;;;;32.33;16.90;;;;;;;2.73;100.00;98903.72;5113971;28;20195;-85
2021/12/11 09:47:30;;;;;;;29.00;15.63;;;;;;;2.49;100.00;98910.66;5112993;28;20220;-85
2021/12/11 09:50:08;;;;;;;28.60;16.10;;;;;;;2.45;100.00;98904.69;5110138;28;20190;-85
2021/12/11 09:52:41;;;;;;;27.67;15.97;;;;;;;2.36;100.00;98925.94;5066288;28;20607;-85
2021/12/11 09:55:17;;;;;;;33.87;16.77;;;;;;;2.34;100.00;98919.06;5067431;28;20201;-85
2021/12/11 09:57:49;;;;;;;29.27;16.00;;;;;;;2.36;100.00;98922.47;5063615;28;20646;-85
2021/12/11 10:00:26;;;;;;;30.03;17.07;;;;;;;2.41;100.00;98920.53;5083336;28;20179;-84
2021/12/11 10:02:56;;;;;;;31.93;16.90;;;;;;;2.37;100.00;98926.78;5073533;28;20304;-85
2021/12/11 10:05:32;;;;;;;30.83;16.03;;;;;;;2.36;100.00;98938.16;5062321;28;20208;-85
2021/12/11 10:08:26;;;;;;;29.80;15.27;;;;;;;2.33;100.00;98935.66;5068326;28;20369;-84
2021/12/11 10:11:08;;;;;;;28.33;16.53;;;;;;;2.25;100.00;98944.59;5068394;28;20192;-85
2021/12/11 10:13:40;;;;;;;27.63;15.13;;;;;;;2.28;100.00;98946.25;5066282;28;20196;-85
2021/12/11 10:16:10;;;;;;;31.23;15.50;;;;;;;2.41;100.00;98941.44;5068555;28;20224;-85
2021/12/11 10:18:40;;;;;;;29.80;15.67;;;;;;;2.48;100.00;98953.41;5107110;28;20196;-85
2021/12/11 10:21:15;;;;;;;30.13;16.10;;;;;;;2.45;100.00;98950.91;5112261;28;20193;-85
2021/12/11 10:23:48;;;;;;;31.33;15.87;;;;;;;2.54;100.00;98953.19;5109218;28;20194;-85
2021/12/11 10:26:19;;;;;;;27.53;15.20;;;;;;;2.64;100.00;98964.19;5108205;28;20203;-84
2021/12/11 10:28:52;;;;;;;32.47;15.87;;;;;;;2.71;100.00;98955.22;5113069;28;20195;-84
2021/12/11 10:31:28;;;;;;;34.83;15.97;;;;;;;2.79;100.00;98958.38;5113869;28;20191;-84
2021/12/11 10:34:03;;;;;;;29.20;15.13;;;;;;;2.96;100.00;98963.88;5116763;28;20578;-84
2021/12/11 10:36:35;;;;;;;29.37;14.97;;;;;;;3.04;100.00;98966.22;5115671;28;20194;-84
2021/12/11 10:39:08;;;;;;;29.80;15.83;;;;;;;2.92;100.00;98971.91;5116941;28;20224;-85
2021/12/11 10:41:37;;;;;;;28.60;15.63;;;;;;;2.99;100.00;98969.00;5117071;28;20191;-84
2021/12/11 10:44:09;;;;;;;28.27;16.17;;;;;;;2.79;100.00;98976.69;5115866;28;20183;-84
2021/12/11 10:46:45;;;;;;;29.87;15.57;;;;;;;3.00;100.00;98978.56;5113074;28;20226;-85
2021/12/11 10:49:16;;;;;;;27.70;16.57;;;;;;;2.79;100.00;98979.31;5105405;28;20218;-85
2021/12/11 10:51:47;;;;;;;28.47;16.83;;;;;;;2.66;100.00;98976.28;5114098;28;20272;-85
2021/12/11 10:54:19;;;;;;;30.37;17.37;;;;;;;2.73;100.00;98984.78;5111026;28;20217;-85
2021/12/11 10:56:48;;;;;;;27.27;15.80;;;;;;;2.82;100.00;98987.06;5115475;27;20191;-85
2021/12/11 10:59:20;;;;;;;29.80;17.63;;;;;;;2.55;100.00;98989.72;5108986;28;20199;-85
2021/12/11 11:01:54;;;;;;;31.83;16.10;;;;;;;2.62;100.00;98993.00;5116260;28;20188;-85
2021/12/11 11:04:25;;;;;;;29.67;16.40;;;;;;;2.83;100.00;98994.00;5116311;28;20258;-85
2021/12/11 11:06:54;;;;;;;32.03;17.57;;;;;;;2.84;100.00;99006.16;5114997;28;20187;-85
2021/12/11 11:09:24;;;;;;;28.40;14.57;;;;;;;2.82;100.00;99001.00;5108321;28;20223;-84
2021/12/11 11:11:58;;;;;;;27.00;15.10;;;;;;;2.89;100.00;98999.00;5111624;28;20217;-84
2021/12/11 11:14:27;;;;;;;31.10;17.03;;;;;;;2.74;100.00;99000.41;5115413;28;20327;-84
2021/12/11 11:17:02;;;;;;;31.23;15.50;;;;;;;3.05;100.00;99004.53;5116277;28;20191;-85
2021/12/11 11:19:34;;;;;;;29.23;14.00;;;;;;;3.52;100.00;99007.19;5108507;28;20206;-84
2021/12/11 11:22:08;;;;;;;27.07;14.73;;;;;;;3.81;100.00;99006.06;5112529;28;20244;-84
2021/12/11 11:24:41;;;;;;;24.80;14.03;;;;;;;3.86;100.00;99002.38;5115965;28;20201;-84
2021/12/11 11:27:16;;;;;;;25.20;13.60;;;;;;;4.02;100.00;99015.69;5115995;28;20278;-84
2021/12/11 11:29:47;;;;;;;31.77;14.07;;;;;;;4.08;100.00;99015.47;5112535;28;20202;-86
2021/12/11 11:32:31;;;;;;;25.00;13.30;;;;;;;4.31;100.00;99019.75;5115648;27;20215;-83
2021/12/11 11:35:02;;;;;;;23.83;13.30;;;;;;;4.55;100.00;99024.00;5114868;28;20195;-83
2021/12/11 11:37:47;;;;;;;24.17;13.47;;;;;;;4.30;100.00;99024.16;5116472;28;20191;-83
2021/12/11 11:40:19;;;;;;;23.17;13.03;;;;;;;4.33;100.00;99020.53;5080555;28;20196;-83
2021/12/11 11:42:48;;;;;;;21.77;13.20;;;;;;;4.53;100.00;99025.81;5112180;28;20195;-83
2021/12/11 11:45:16;;;;;;;23.77;11.53;;;;;;;4.77;100.00;99031.81;5111658;28;20251;-83